Time;durP1;ratioP1;P1;durP2;ratioP2;P2;SDS_P1;SDS_P2;PMS_P1;PMS_P2;Temp;Humidity;BMP_temperature;BMP_pressure;BME280_temperature;BME280_humidity;BME280_pressure;Samples;Min_cycle;Max_cycle;Signal;HPM_P1;HPM_P2
2021/05/07 00:00:05;;;;;;;0.30;0.30;;;20.70;54.00;;;;;;5059325;28;20035;-42
2021/05/07 00:02:30;;;;;;;2.03;0.43;;;20.60;54.30;;;;;;5069338;28;20032;-40
2021/05/07 00:04:56;;;;;;;0.60;0.30;;;20.60;54.20;;;;;;5070979;28;20021;-42
2021/05/07 00:07:21;;;;;;;0.40;0.40;;;20.70;54.10;;;;;;5072641;28;20067;-42
2021/05/07 00:09:47;;;;;;;0.90;0.50;;;20.70;54.00;;;;;;5069083;28;20036;-42
2021/05/07 00:12:12;;;;;;;0.50;0.50;;;20.70;54.00;;;;;;5069025;28;20028;-44
2021/05/07 00:14:38;;;;;;;0.30;0.30;;;20.70;54.10;;;;;;5070498;28;20029;-43
2021/05/07 00:17:04;;;;;;;0.50;0.50;;;20.70;54.70;;;;;;5070849;28;20017;-45
2021/05/07 00:19:29;;;;;;;0.43;0.43;;;20.60;54.00;;;;;;5071911;28;20116;-42
2021/05/07 00:21:55;;;;;;;1.10;0.50;;;20.60;54.10;;;;;;5069407;28;20021;-43
2021/05/07 00:24:20;;;;;;;1.02;0.60;;;20.60;54.20;;;;;;5047370;28;20060;-38
2021/05/07 00:26:46;;;;;;;0.45;0.40;;;20.50;54.20;;;;;;5056380;28;20039;-39
2021/05/07 00:29:12;;;;;;;0.40;0.40;;;20.50;54.30;;;;;;5070091;28;20040;-42
2021/05/07 00:31:37;;;;;;;2.80;0.43;;;20.50;54.20;;;;;;5071268;28;20394;-39
2021/05/07 00:34:03;;;;;;;0.75;0.50;;;20.50;54.20;;;;;;5069628;28;20029;-41
2021/05/07 00:36:28;;;;;;;0.70;0.40;;;20.50;54.30;;;;;;5068272;28;20032;-40
2021/05/07 00:38:54;;;;;;;1.05;0.22;;;20.60;54.00;;;;;;5069690;28;20071;-42
2021/05/07 00:41:20;;;;;;;0.30;0.30;;;20.60;54.10;;;;;;5068660;28;20024;-43
2021/05/07 00:43:45;;;;;;;1.15;0.50;;;20.60;53.90;;;;;;5072343;28;20025;-41
2021/05/07 00:46:11;;;;;;;0.63;0.40;;;20.70;53.70;;;;;;5068399;28;20045;-43
2021/05/07 00:48:37;;;;;;;0.43;0.43;;;20.70;53.70;;;;;;5068615;28;20111;-41
2021/05/07 00:51:03;;;;;;;0.68;0.50;;;20.70;53.60;;;;;;5068405;28;20083;-42
2021/05/07 00:53:29;;;;;;;0.47;0.47;;;20.70;53.60;;;;;;5069370;28;20441;-43
2021/05/07 00:55:54;;;;;;;0.60;0.40;;;20.70;53.60;;;;;;5071108;28;20020;-40
2021/05/07 00:58:20;;;;;;;0.60;0.40;;;20.70;53.50;;;;;;5053707;28;20055;-41
2021/05/07 01:00:48;;;;;;;1.27;0.40;;;20.60;53.50;;;;;;5068610;28;20566;-39
2021/05/07 01:03:14;;;;;;;0.50;0.50;;;20.60;53.70;;;;;;5068034;28;20048;-41
2021/05/07 01:05:39;;;;;;;0.65;0.55;;;20.60;53.90;;;;;;5068026;28;20075;-39
2021/05/07 01:08:05;;;;;;;0.57;0.50;;;20.60;54.20;;;;;;5070390;28;20031;-41
2021/05/07 01:10:30;;;;;;;0.50;0.50;;;20.60;54.50;;;;;;5069910;28;20021;-38
2021/05/07 01:12:56;;;;;;;0.55;0.45;;;20.60;54.80;;;;;;5068946;28;20024;-39
2021/05/07 01:15:22;;;;;;;0.40;0.40;;;20.50;54.90;;;;;;5047281;28;20029;-39
2021/05/07 01:17:53;;;;;;;0.57;0.50;;;20.50;55.00;;;;;;5056317;28;20028;-41
2021/05/07 01:20:29;;;;;;;1.27;0.50;;;20.50;55.00;;;;;;5052545;28;20486;-39
2021/05/07 01:22:59;;;;;;;0.85;0.55;;;20.50;55.10;;;;;;5070352;28;20044;-39
2021/05/07 01:25:29;;;;;;;0.50;0.50;;;20.40;55.20;;;;;;5053094;28;20031;-40
2021/05/07 01:27:57;;;;;;;0.70;0.43;;;20.40;55.20;;;;;;5068338;28;20399;-41
2021/05/07 01:30:24;;;;;;;0.63;0.55;;;20.40;55.30;;;;;;5067880;28;20407;-40
2021/05/07 01:32:50;;;;;;;0.70;0.60;;;20.40;55.10;;;;;;5069361;28;20680;-39
2021/05/07 01:35:18;;;;;;;0.47;0.40;;;20.50;55.10;;;;;;5050524;28;20111;-38
2021/05/07 01:37:44;;;;;;;0.95;0.43;;;20.40;55.10;;;;;;5072492;28;20063;-39
2021/05/07 01:40:12;;;;;;;0.77;0.60;;;20.40;55.20;;;;;;5071873;28;20031;-40
2021/05/07 01:42:37;;;;;;;0.50;0.50;;;20.40;55.20;;;;;;5071819;28;20383;-41
2021/05/07 01:45:06;;;;;;;0.68;0.50;;;20.40;55.10;;;;;;5071702;28;20049;-43
2021/05/07 01:47:32;;;;;;;0.50;0.35;;;20.30;55.10;;;;;;5072076;28;20025;-40
2021/05/07 01:49:58;;;;;;;0.63;0.50;;;20.30;55.20;;;;;;5074337;28;20036;-37
2021/05/07 01:52:23;;;;;;;0.63;0.50;;;20.40;55.10;;;;;;5072633;28;20032;-43
2021/05/07 01:54:49;;;;;;;0.50;0.50;;;20.40;55.10;;;;;;5058250;28;20023;-43
2021/05/07 01:57:14;;;;;;;0.70;0.43;;;20.40;55.00;;;;;;5071539;28;20111;-43
2021/05/07 01:59:40;;;;;;;0.57;0.50;;;20.40;55.60;;;;;;5071665;28;20016;-41
2021/05/07 02:02:06;;;;;;;0.57;0.52;;;20.40;54.90;;;;;;5073557;28;20082;-43
2021/05/07 02:04:31;;;;;;;0.60;0.50;;;20.40;54.70;;;;;;5073231;28;20020;-40
2021/05/07 02:06:57;;;;;;;0.73;0.50;;;20.40;55.40;;;;;;5070717;28;20036;-44
2021/05/07 02:09:22;;;;;;;0.40;0.35;;;20.50;54.70;;;;;;5053254;28;20052;-43
2021/05/07 02:11:48;;;;;;;0.70;0.50;;;20.50;54.80;;;;;;5071643;28;20027;-41
2021/05/07 02:14:13;;;;;;;0.60;0.50;;;20.50;54.70;;;;;;5072347;28;20032;-43
2021/05/07 02:16:39;;;;;;;0.50;0.50;;;20.50;55.10;;;;;;5074269;28;20077;-43
2021/05/07 02:19:04;;;;;;;0.30;0.30;;;20.60;54.20;;;;;;5071145;28;20482;-42
2021/05/07 02:21:30;;;;;;;0.73;0.50;;;20.60;54.30;;;;;;5070950;28;20029;-44
2021/05/07 02:23:58;;;;;;;0.55;0.40;;;20.60;54.10;;;;;;5072467;28;20383;-40
2021/05/07 02:26:24;;;;;;;0.47;0.43;;;20.60;54.70;;;;;;5072829;28;20540;-42
2021/05/07 02:28:49;;;;;;;0.73;0.52;;;20.80;54.00;;;;;;5074376;28;20055;-36
2021/05/07 02:31:15;;;;;;;0.43;0.30;;;21.00;53.50;;;;;;5070062;28;20036;-39
2021/05/07 02:33:40;;;;;;;0.50;0.50;;;20.90;53.30;;;;;;5070768;28;20028;-41
2021/05/07 02:36:06;;;;;;;0.60;0.43;;;21.00;53.10;;;;;;5072026;28;20029;-41
2021/05/07 02:38:34;;;;;;;0.38;0.35;;;21.20;52.80;;;;;;5069957;28;20056;-40
2021/05/07 02:41:00;;;;;;;0.50;0.40;;;21.20;52.70;;;;;;5073161;28;20025;-39
2021/05/07 02:43:25;;;;;;;0.40;0.40;;;21.20;52.50;;;;;;5071822;28;20024;-39
2021/05/07 02:45:51;;;;;;;2.30;0.40;;;21.30;52.50;;;;;;5070454;28;20048;-39
2021/05/07 02:48:16;;;;;;;0.45;0.45;;;21.30;52.40;;;;;;5070408;28;20513;-39
2021/05/07 02:50:42;;;;;;;0.40;0.40;;;21.20;53.00;;;;;;5054398;28;20032;-39
2021/05/07 02:53:07;;;;;;;0.40;0.40;;;21.30;52.30;;;;;;5072346;28;20028;-39
2021/05/07 02:55:33;;;;;;;0.63;0.50;;;21.30;52.20;;;;;;5072493;28;20021;-40
2021/05/07 02:57:58;;;;;;;0.40;0.40;;;21.30;52.10;;;;;;5070526;28;20086;-39
2021/05/07 03:00:24;;;;;;;0.80;0.60;;;21.30;52.10;;;;;;5070574;28;20028;-39
2021/05/07 03:02:49;;;;;;;0.70;0.40;;;21.30;52.80;;;;;;5069799;28;20056;-38
2021/05/07 03:05:15;;;;;;;0.45;0.30;;;21.30;52.20;;;;;;5071116;28;20067;-39
2021/05/07 03:07:41;;;;;;;0.40;0.40;;;21.30;52.10;;;;;;5051951;28;20045;-40
2021/05/07 03:10:07;;;;;;;0.40;0.30;;;21.30;52.10;;;;;;5070588;28;20395;-40
2021/05/07 03:12:32;;;;;;;0.30;0.30;;;21.30;52.10;;;;;;5070156;28;20028;-40
2021/05/07 03:14:58;;;;;;;0.30;0.30;;;21.30;52.00;;;;;;5071490;28;20418;-40
2021/05/07 03:17:23;;;;;;;0.45;0.30;;;21.20;52.70;;;;;;5076257;28;20741;-40
2021/05/07 03:19:49;;;;;;;0.35;0.35;;;21.20;52.20;;;;;;5073528;28;20017;-37
2021/05/07 03:22:14;;;;;;;0.40;0.32;;;21.20;52.10;;;;;;5070280;28;20029;-39
2021/05/07 03:24:40;;;;;;;0.43;0.32;;;21.20;52.10;;;;;;5069993;28;20027;-43
2021/05/07 03:27:06;;;;;;;0.30;0.30;;;21.20;52.00;;;;;;5069663;28;20083;-40
2021/05/07 03:29:31;;;;;;;0.30;0.30;;;21.20;52.00;;;;;;5054600;28;20028;-40
2021/05/07 03:31:57;;;;;;;0.38;0.30;;;21.20;52.00;;;;;;5083134;28;20093;-44
2021/05/07 03:34:22;;;;;;;0.52;0.40;;;21.20;52.60;;;;;;5070806;28;20032;-41
2021/05/07 03:36:48;;;;;;;0.30;0.30;;;21.20;52.00;;;;;;5048680;28;20499;-42
2021/05/07 03:39:13;;;;;;;1.05;0.57;;;21.20;52.00;;;;;;5061401;28;20032;-42
2021/05/07 03:41:39;;;;;;;0.55;0.45;;;21.10;52.10;;;;;;5069485;28;20032;-39
2021/05/07 03:44:05;;;;;;;0.35;0.35;;;21.20;51.90;;;;;;5071788;28;20032;-41
2021/05/07 03:46:30;;;;;;;0.50;0.50;;;21.20;51.90;;;;;;5070509;28;20506;-44
2021/05/07 03:48:56;;;;;;;0.30;0.30;;;21.20;52.60;;;;;;5069566;28;20025;-41
2021/05/07 03:51:21;;;;;;;0.43;0.40;;;21.20;51.90;;;;;;5069635;28;20534;-41
2021/05/07 03:53:47;;;;;;;0.40;0.40;;;21.20;51.90;;;;;;5070690;28;20028;-41
2021/05/07 03:56:13;;;;;;;0.55;0.28;;;21.20;51.80;;;;;;5070221;28;20017;-40
2021/05/07 03:58:38;;;;;;;2.08;0.50;;;21.10;52.50;;;;;;5071890;28;20029;-42
2021/05/07 04:01:07;;;;;;;0.40;0.40;;;21.20;51.90;;;;;;5072777;28;20354;-40
2021/05/07 04:03:32;;;;;;;0.35;0.35;;;21.20;51.90;;;;;;5073566;28;20071;-42
2021/05/07 04:05:58;;;;;;;0.40;0.40;;;21.20;51.80;;;;;;5070807;28;20072;-41
2021/05/07 04:08:30;;;;;;;0.25;0.25;;;21.20;51.70;;;;;;5077682;28;20060;-41
2021/05/07 04:15:55;;;;;;;0.40;0.40;;;21.10;51.80;;;;;;5068858;28;20028;-39
2021/05/07 04:18:21;;;;;;;0.50;0.50;;;21.10;51.70;;;;;;5068956;28;20031;-42
2021/05/07 04:20:46;;;;;;;0.32;0.32;;;21.10;51.70;;;;;;5070153;28;20032;-42
2021/05/07 04:23:12;;;;;;;0.40;0.40;;;21.10;51.90;;;;;;5069859;28;20041;-42
2021/05/07 04:25:37;;;;;;;0.50;0.45;;;21.20;51.70;;;;;;5070966;28;20029;-40
2021/05/07 04:28:03;;;;;;;1.38;0.60;;;21.10;52.00;;;;;;5070231;28;20099;-42
2021/05/07 04:30:29;;;;;;;0.50;0.50;;;21.10;52.30;;;;;;5070293;28;20403;-42
2021/05/07 04:32:54;;;;;;;0.75;0.60;;;21.10;52.60;;;;;;5051942;28;20024;-42
2021/05/07 04:35:20;;;;;;;0.60;0.60;;;21.10;52.60;;;;;;5051347;28;20394;-41
2021/05/07 04:37:45;;;;;;;0.50;0.50;;;21.10;52.70;;;;;;5072782;28;20592;-41
2021/05/07 04:40:12;;;;;;;0.80;0.60;;;21.00;52.90;;;;;;5075446;28;20103;-33
2021/05/07 04:42:38;;;;;;;1.05;0.60;;;21.10;53.30;;;;;;5070535;28;20557;-41
2021/05/07 04:45:04;;;;;;;0.70;0.70;;;21.00;53.10;;;;;;5061756;28;20044;-43
2021/05/07 04:47:29;;;;;;;1.67;0.70;;;21.00;53.10;;;;;;5059108;28;20032;-41
2021/05/07 04:49:55;;;;;;;3.03;0.93;;;21.00;53.40;;;;;;5057562;28;20086;-43
2021/05/07 04:52:21;;;;;;;0.98;0.82;;;21.00;53.60;;;;;;5056417;28;20083;-43
2021/05/07 04:54:46;;;;;;;3.40;1.08;;;20.90;54.50;;;;;;5039234;28;20119;-43
2021/05/07 04:57:12;;;;;;;1.40;1.00;;;20.90;55.60;;;;;;5058014;28;20073;-43
2021/05/07 04:59:37;;;;;;;0.90;0.90;;;20.90;56.30;;;;;;5054331;28;20103;-44
2021/05/07 05:02:03;;;;;;;1.00;0.90;;;20.90;56.00;;;;;;5046646;28;20040;-45
2021/05/07 05:04:28;;;;;;;1.10;0.77;;;20.80;56.60;;;;;;5074606;28;20078;-43
2021/05/07 05:06:54;;;;;;;4.15;1.05;;;20.70;56.80;;;;;;5078126;28;20102;-45
2021/05/07 05:09:20;;;;;;;1.20;0.77;;;20.90;57.50;;;;;;5058688;28;20098;-46
2021/05/07 05:11:45;;;;;;;5.88;0.93;;;20.90;57.50;;;;;;5066694;28;20040;-44
2021/05/07 05:14:11;;;;;;;4.10;1.15;;;20.60;56.30;;;;;;5076692;28;20028;-45
2021/05/07 05:16:36;;;;;;;0.93;0.88;;;20.50;57.40;;;;;;5049050;28;20041;-44
2021/05/07 05:19:02;;;;;;;1.17;0.77;;;20.30;58.00;;;;;;5075274;28;20076;-44
2021/05/07 05:21:27;;;;;;;4.90;0.80;;;20.30;58.00;;;;;;5079524;28;20460;-45
2021/05/07 05:24:00;;;;;;;2.57;0.73;;;20.20;57.50;;;;;;4963013;28;10000768;-43
2021/05/07 05:26:26;;;;;;;1.05;0.93;;;20.10;58.20;;;;;;5080456;28;20348;-44
2021/05/07 05:28:51;;;;;;;2.25;0.80;;;20.20;58.50;;;;;;5075332;28;20044;-43
2021/05/07 05:31:17;;;;;;;1.25;0.95;;;20.10;57.90;;;;;;5066397;28;21143;-42
2021/05/07 05:33:43;;;;;;;0.77;0.77;;;20.20;58.10;;;;;;5069496;28;20051;-38
2021/05/07 05:36:08;;;;;;;0.90;0.90;;;20.30;56.90;;;;;;5072254;28;20432;-45
2021/05/07 05:38:34;;;;;;;5.45;1.00;;;20.20;57.30;;;;;;5072811;28;20222;-45
2021/05/07 05:40:59;;;;;;;1.67;1.02;;;20.20;57.70;;;;;;5066930;28;20041;-42
2021/05/07 05:43:25;;;;;;;1.45;0.70;;;20.10;57.00;;;;;;5068831;28;20048;-40
2021/05/07 05:45:50;;;;;;;0.88;0.80;;;20.20;58.10;;;;;;5060927;28;20059;-39
2021/05/07 05:48:18;;;;;;;2.72;0.90;;;20.30;57.60;;;;;;5072862;28;20549;-40
2021/05/07 05:50:48;;;;;;;0.82;0.82;;;20.30;57.50;;;;;;5086835;28;20082;-43
2021/05/07 05:53:14;;;;;;;2.70;1.08;;;20.30;57.60;;;;;;5085205;28;20036;-45
2021/05/07 05:55:39;;;;;;;3.13;0.80;;;20.30;56.80;;;;;;5067121;28;20037;-44
2021/05/07 05:58:05;;;;;;;1.30;1.00;;;20.30;56.90;;;;;;5074150;28;20588;-42
2021/05/07 06:00:31;;;;;;;1.08;0.50;;;20.50;56.60;;;;;;5086164;28;20139;-41
2021/05/07 06:02:56;;;;;;;1.08;0.73;;;20.50;56.50;;;;;;5082124;28;20048;-45
2021/05/07 06:05:22;;;;;;;0.88;0.80;;;20.60;56.20;;;;;;5048628;28;20125;-43
2021/05/07 06:07:48;;;;;;;1.10;0.82;;;20.70;55.80;;;;;;5085714;28;20079;-41
2021/05/07 06:10:14;;;;;;;3.00;0.70;;;20.80;55.50;;;;;;5080721;28;20094;-42
2021/05/07 06:12:40;;;;;;;1.23;0.80;;;20.80;55.50;;;;;;5082253;28;20047;-42
2021/05/07 06:15:06;;;;;;;2.22;0.68;;;20.60;56.60;;;;;;5074110;28;20032;-42
2021/05/07 06:17:33;;;;;;;1.30;0.70;;;20.50;56.30;;;;;;5074648;28;20459;-42
2021/05/07 06:20:02;;;;;;;1.00;0.90;;;20.50;56.20;;;;;;5104853;28;20131;-43
2021/05/07 06:22:28;;;;;;;5.38;1.00;;;20.60;56.10;;;;;;5106415;28;20051;-43
2021/05/07 06:24:53;;;;;;;0.88;0.70;;;20.70;55.90;;;;;;5106678;28;20043;-42
2021/05/07 06:27:19;;;;;;;1.35;0.90;;;20.80;55.10;;;;;;5100100;28;20039;-42
2021/05/07 06:29:44;;;;;;;3.55;0.80;;;20.90;55.10;;;;;;5108623;28;20035;-42
2021/05/07 06:32:10;;;;;;;1.42;0.98;;;20.80;55.40;;;;;;5107032;28;20189;-38
2021/05/07 06:34:36;;;;;;;10.45;1.10;;;20.90;55.40;;;;;;5094905;28;20467;-45
2021/05/07 06:37:01;;;;;;;1.17;0.80;;;20.80;55.00;;;;;;5097013;28;20131;-44
2021/05/07 06:39:29;;;;;;;1.65;1.20;;;20.80;55.20;;;;;;5095663;28;20039;-43
2021/05/07 06:41:57;;;;;;;5.85;1.10;;;20.70;55.10;;;;;;5101179;28;20074;-44
2021/05/07 06:44:23;;;;;;;3.05;0.90;;;20.70;55.10;;;;;;5096996;28;20100;-41
2021/05/07 06:46:48;;;;;;;3.47;1.10;;;20.60;55.80;;;;;;5091702;28;20044;-44
2021/05/07 06:49:14;;;;;;;2.33;1.20;;;20.40;56.10;;;;;;5095173;28;20047;-45
2021/05/07 06:51:40;;;;;;;1.90;0.90;;;20.30;56.60;;;;;;5095073;28;20448;-44
2021/05/07 06:54:06;;;;;;;2.70;1.30;;;20.20;56.80;;;;;;5097969;28;20039;-44
2021/05/07 06:56:32;;;;;;;5.32;1.20;;;20.20;56.80;;;;;;5075385;28;20101;-46
2021/05/07 06:58:57;;;;;;;1.60;0.93;;;20.10;56.20;;;;;;5093264;28;20044;-43
2021/05/07 07:01:23;;;;;;;1.60;0.82;;;20.10;55.70;;;;;;5084354;28;20056;-43
2021/05/07 07:03:49;;;;;;;2.63;1.10;;;20.10;56.00;;;;;;5096214;28;20051;-44
2021/05/07 07:06:14;;;;;;;2.42;1.17;;;20.10;56.00;;;;;;5080177;28;20096;-44
2021/05/07 07:08:40;;;;;;;3.35;1.17;;;20.10;55.70;;;;;;5101271;28;20036;-41
2021/05/07 07:11:05;;;;;;;2.78;0.73;;;20.10;55.50;;;;;;5099606;28;20071;-44
2021/05/07 07:13:31;;;;;;;2.08;0.98;;;20.20;55.40;;;;;;5099455;28;20040;-41
2021/05/07 07:15:56;;;;;;;0.75;0.73;;;20.20;55.40;;;;;;5099516;28;20040;-44
2021/05/07 07:18:22;;;;;;;1.75;0.85;;;20.20;55.50;;;;;;5099236;28;20084;-42
2021/05/07 07:20:48;;;;;;;1.42;1.00;;;20.20;55.20;;;;;;5094676;28;20405;-42
2021/05/07 07:23:14;;;;;;;1.10;0.70;;;20.20;55.90;;;;;;5093435;28;20085;-43
2021/05/07 07:25:40;;;;;;;1.88;0.90;;;20.20;55.20;;;;;;5097545;28;20366;-43
2021/05/07 07:28:05;;;;;;;0.82;0.80;;;20.30;56.10;;;;;;5089942;28;20047;-42
2021/05/07 07:30:31;;;;;;;1.73;0.90;;;20.40;55.30;;;;;;5100471;28;20509;-41
2021/05/07 07:32:57;;;;;;;1.50;0.80;;;20.40;55.70;;;;;;5099936;28;20046;-42
2021/05/07 07:35:22;;;;;;;1.77;0.90;;;20.50;55.40;;;;;;5092991;28;20443;-42
2021/05/07 07:37:48;;;;;;;1.80;0.65;;;20.60;55.50;;;;;;5102349;28;20130;-42
2021/05/07 07:40:14;;;;;;;0.93;0.75;;;20.50;55.10;;;;;;5098154;28;20036;-45
2021/05/07 07:42:40;;;;;;;1.95;0.98;;;20.50;54.40;;;;;;5090436;28;20049;-42
2021/05/07 07:45:07;;;;;;;1.23;0.60;;;20.50;54.40;;;;;;5072469;28;20488;-33
2021/05/07 07:47:32;;;;;;;2.08;0.90;;;20.40;54.30;;;;;;5093883;28;20144;-42
2021/05/07 07:49:58;;;;;;;0.85;0.73;;;20.50;54.40;;;;;;5090569;28;20062;-41
2021/05/07 07:52:24;;;;;;;1.38;0.80;;;20.50;54.40;;;;;;5100888;28;20054;-42
2021/05/07 07:54:49;;;;;;;0.98;0.60;;;20.50;54.30;;;;;;5093974;28;20044;-43
2021/05/07 07:57:15;;;;;;;0.80;0.68;;;20.50;54.40;;;;;;5094288;28;20528;-45
2021/05/07 07:59:41;;;;;;;1.88;0.85;;;20.50;54.30;;;;;;5093874;28;20573;-43
2021/05/07 08:02:06;;;;;;;1.10;0.70;;;20.50;54.10;;;;;;5091199;28;20066;-27
2021/05/07 08:04:32;;;;;;;1.58;0.70;;;20.50;54.20;;;;;;5093313;28;20055;-43
2021/05/07 08:06:59;;;;;;;1.15;0.70;;;20.60;54.10;;;;;;5087581;28;20047;-41
2021/05/07 08:09:25;;;;;;;1.00;0.60;;;20.60;54.00;;;;;;5086402;28;20639;-41
2021/05/07 08:11:52;;;;;;;3.28;0.80;;;20.60;53.90;;;;;;5092376;28;20130;-42
2021/05/07 08:14:18;;;;;;;1.15;0.70;;;20.60;53.90;;;;;;5090635;28;20051;-42
2021/05/07 08:16:43;;;;;;;1.00;0.88;;;20.60;53.70;;;;;;5075763;28;20066;-41
2021/05/07 08:19:09;;;;;;;2.65;0.73;;;20.70;53.90;;;;;;5093257;28;20508;-40
2021/05/07 08:21:34;;;;;;;1.05;0.70;;;20.60;53.70;;;;;;5095134;28;20479;-40
2021/05/07 08:24:00;;;;;;;1.35;0.70;;;20.70;53.80;;;;;;5092934;28;20043;-40
2021/05/07 08:26:25;;;;;;;1.15;0.80;;;20.70;53.80;;;;;;5094274;28;20506;-40
2021/05/07 08:28:51;;;;;;;2.40;0.80;;;20.70;53.90;;;;;;5089446;28;20042;-44
2021/05/07 08:31:17;;;;;;;0.95;0.73;;;20.70;53.80;;;;;;5086503;28;20043;-41
2021/05/07 08:33:42;;;;;;;2.22;0.63;;;20.70;53.80;;;;;;5092366;28;20123;-41
2021/05/07 08:36:08;;;;;;;0.50;0.50;;;20.70;53.70;;;;;;5060290;28;20032;-41
2021/05/07 08:38:33;;;;;;;0.70;0.70;;;20.80;53.90;;;;;;5088867;28;20082;-41
2021/05/07 08:41:03;;;;;;;1.45;0.60;;;20.80;54.20;;;;;;5079629;28;20044;-41
2021/05/07 08:43:28;;;;;;;0.98;0.60;;;20.90;54.60;;;;;;5091710;28;20043;-42
2021/05/07 08:45:54;;;;;;;1.75;0.80;;;20.90;53.90;;;;;;5087412;28;20047;-42
2021/05/07 08:48:19;;;;;;;0.70;0.50;;;21.00;54.00;;;;;;5094555;28;20051;-41
2021/05/07 08:50:48;;;;;;;2.15;0.50;;;21.00;53.90;;;;;;5069752;28;20050;-44
2021/05/07 08:53:16;;;;;;;0.90;0.60;;;21.00;54.30;;;;;;5092578;28;20089;-45
2021/05/07 08:55:41;;;;;;;0.52;0.50;;;21.10;54.10;;;;;;5096305;28;20048;-42
2021/05/07 08:58:07;;;;;;;0.60;0.60;;;21.10;54.30;;;;;;5096812;28;20032;-43
2021/05/07 09:00:33;;;;;;;0.77;0.70;;;21.10;54.30;;;;;;5095737;28;20051;-43
2021/05/07 09:03:05;;;;;;;1.20;0.80;;;21.20;54.20;;;;;;5098669;28;20032;-42
2021/05/07 09:05:35;;;;;;;1.17;0.55;;;21.30;54.10;;;;;;5080084;28;20461;-47
2021/05/07 09:08:01;;;;;;;0.47;0.47;;;21.30;54.30;;;;;;5099030;28;20417;-42
2021/05/07 09:10:39;;;;;;;0.90;0.80;;;21.30;54.40;;;;;;5096716;28;20055;-43
2021/05/07 09:13:08;;;;;;;2.28;0.63;;;21.40;54.30;;;;;;5089849;28;20047;-43
2021/05/07 09:15:41;;;;;;;0.95;0.85;;;21.40;54.30;;;;;;5091048;28;20082;-42
2021/05/07 09:18:06;;;;;;;0.50;0.50;;;21.40;54.30;;;;;;5093409;28;20032;-44
2021/05/07 09:20:59;;;;;;;0.68;0.60;;;21.40;54.10;;;;;;5089885;28;20040;-42
2021/05/07 09:23:25;;;;;;;1.17;0.50;;;21.50;54.10;;;;;;5084909;28;20040;-42
2021/05/07 09:26:00;;;;;;;0.70;0.57;;;21.50;54.20;;;;;;5093593;28;20055;-43
2021/05/07 09:28:25;;;;;;;0.70;0.70;;;21.50;53.90;;;;;;5094687;28;20044;-45
2021/05/07 09:30:51;;;;;;;1.05;0.82;;;21.50;54.20;;;;;;5080218;28;20051;-42
2021/05/07 09:33:17;;;;;;;0.93;0.80;;;21.60;54.00;;;;;;5097289;28;20042;-45
2021/05/07 09:35:42;;;;;;;0.40;0.40;;;21.50;54.10;;;;;;5095915;28;20047;-43
2021/05/07 09:38:16;;;;;;;0.47;0.47;;;21.60;53.80;;;;;;5091855;28;20048;-41
2021/05/07 09:40:42;;;;;;;1.88;0.50;;;21.60;53.80;;;;;;5091723;28;20043;-43
2021/05/07 09:43:09;;;;;;;1.70;0.60;;;21.60;53.80;;;;;;5093555;28;20051;-42
2021/05/07 09:45:35;;;;;;;0.50;0.50;;;21.70;53.60;;;;;;5091873;28;20044;-44
2021/05/07 09:48:01;;;;;;;0.80;0.70;;;21.70;53.70;;;;;;5097861;28;20536;-43
2021/05/07 09:50:40;;;;;;;0.70;0.65;;;21.70;53.50;;;;;;5093633;28;20043;-43
2021/05/07 09:53:17;;;;;;;0.60;0.60;;;21.70;53.60;;;;;;5074990;28;20710;-43
2021/05/07 09:55:43;;;;;;;0.63;0.52;;;21.70;53.40;;;;;;5091539;28;20434;-44
2021/05/07 09:58:09;;;;;;;0.43;0.43;;;21.70;53.40;;;;;;5088250;28;20135;-43
2021/05/07 10:00:35;;;;;;;1.02;0.70;;;21.80;53.30;;;;;;5092322;28;20127;-43
2021/05/07 10:03:00;;;;;;;0.63;0.50;;;21.90;53.10;;;;;;5092789;28;20101;-44
2021/05/07 10:05:27;;;;;;;0.60;0.60;;;21.80;53.10;;;;;;5095232;28;20044;-44
2021/05/07 10:07:53;;;;;;;0.50;0.50;;;21.80;53.30;;;;;;5094893;28;20746;-44
2021/05/07 10:10:19;;;;;;;0.73;0.60;;;21.80;53.10;;;;;;5100419;28;20501;-43
2021/05/07 10:12:45;;;;;;;0.55;0.50;;;21.90;53.00;;;;;;5060942;28;20044;-43
2021/05/07 10:15:11;;;;;;;0.73;0.43;;;21.90;52.70;;;;;;5084102;28;20040;-42
2021/05/07 10:17:47;;;;;;;0.68;0.43;;;22.10;52.30;;;;;;5075121;28;20051;-44
2021/05/07 10:20:25;;;;;;;0.80;0.80;;;22.20;52.00;;;;;;5078088;28;20130;-43
2021/05/07 10:22:50;;;;;;;0.80;0.55;;;22.40;51.40;;;;;;5094387;28;20048;-43
2021/05/07 10:25:19;;;;;;;0.63;0.63;;;22.50;50.90;;;;;;5104601;28;20494;-43
2021/05/07 10:27:46;;;;;;;1.33;0.90;;;22.50;50.70;;;;;;5084633;28;20040;-45
2021/05/07 10:30:24;;;;;;;1.80;1.00;;;22.50;50.60;;;;;;5101606;28;20569;-45
2021/05/07 10:32:58;;;;;;;2.00;1.50;;;22.50;50.40;;;;;;5094854;28;20047;-43
2021/05/07 10:35:31;;;;;;;2.33;1.70;;;22.60;50.40;;;;;;5097154;28;20032;-45
2021/05/07 10:38:16;;;;;;;3.00;1.70;;;22.60;51.10;;;;;;4744513;28;10000373;-43
2021/05/07 10:40:42;;;;;;;10.45;2.42;;;22.60;50.60;;;;;;5098300;28;20074;-45
2021/05/07 10:43:07;;;;;;;4.93;2.65;;;22.60;51.40;;;;;;5097806;28;20537;-42
2021/05/07 10:45:44;;;;;;;5.53;2.63;;;22.50;52.60;;;;;;4740167;28;9999993;-46
2021/05/07 10:48:18;;;;;;;6.35;2.38;;;22.40;51.70;;;;;;5094170;28;20036;-45
2021/05/07 10:50:45;;;;;;;4.63;2.42;;;22.50;51.40;;;;;;5095749;28;20047;-45
2021/05/07 10:53:11;;;;;;;4.38;2.20;;;22.50;52.20;;;;;;5081366;28;20064;-46
2021/05/07 10:55:36;;;;;;;3.45;2.17;;;22.60;51.60;;;;;;5097700;28;20453;-43
2021/05/07 10:58:04;;;;;;;5.47;2.17;;;22.50;52.40;;;;;;5098555;28;20051;-47
2021/05/07 11:00:39;;;;;;;4.20;2.65;;;22.50;53.00;;;;;;5096954;28;20680;-45
2021/05/07 11:03:06;;;;;;;5.85;2.42;;;22.50;52.20;;;;;;5094486;28;20047;-47
2021/05/07 11:05:45;;;;;;;3.72;2.42;;;22.60;52.50;;;;;;5081796;28;20039;-43
2021/05/07 11:08:10;;;;;;;3.78;2.28;;;22.50;52.90;;;;;;5092957;28;20146;-44
2021/05/07 11:10:36;;;;;;;4.45;2.35;;;22.40;53.80;;;;;;5095239;28;20134;-45
2021/05/07 11:13:01;;;;;;;4.97;2.40;;;22.50;52.90;;;;;;5104892;28;20048;-46
2021/05/07 11:15:27;;;;;;;4.40;2.08;;;22.50;52.70;;;;;;5101079;28;20043;-46
2021/05/07 11:18:02;;;;;;;3.83;2.28;;;22.50;52.70;;;;;;5104511;28;20138;-45
2021/05/07 11:20:35;;;;;;;3.70;2.20;;;22.50;53.00;;;;;;5105158;28;20047;-44
2021/05/07 11:23:10;;;;;;;4.43;2.00;;;22.40;53.00;;;;;;5082631;28;20055;-43
2021/05/07 11:25:35;;;;;;;5.25;1.40;;;22.40;53.00;;;;;;5105966;28;20079;-43
2021/05/07 11:28:20;;;;;;;2.08;1.50;;;22.40;53.20;;;;;;5106466;28;20702;-43
2021/05/07 11:30:56;;;;;;;3.25;1.80;;;22.50;53.40;;;;;;5105577;28;20047;-42
2021/05/07 11:33:22;;;;;;;3.78;1.70;;;22.40;52.90;;;;;;5103130;28;20096;-42
2021/05/07 11:36:09;;;;;;;6.88;2.03;;;22.40;52.90;;;;;;5106575;28;20109;-42
2021/05/07 11:38:36;;;;;;;2.58;1.52;;;22.40;52.70;;;;;;5074291;28;20039;-44
2021/05/07 11:41:02;;;;;;;1.83;1.55;;;22.30;52.50;;;;;;5104396;28;20063;-40
2021/05/07 11:43:28;;;;;;;2.50;1.40;;;22.30;51.80;;;;;;5107668;28;20108;-40
2021/05/07 11:46:07;;;;;;;2.67;1.50;;;22.30;51.30;;;;;;5063447;28;20062;-39
2021/05/07 11:48:33;;;;;;;1.95;1.38;;;22.30;51.20;;;;;;5107982;28;20514;-40
2021/05/07 11:51:08;;;;;;;1.65;1.30;;;22.30;51.00;;;;;;5105003;28;20512;-39
2021/05/07 11:53:34;;;;;;;2.22;1.27;;;22.30;50.70;;;;;;5079970;28;20040;-40
2021/05/07 11:55:59;;;;;;;1.65;1.10;;;22.40;50.40;;;;;;5107116;28;20086;-42
2021/05/07 11:58:35;;;;;;;3.30;1.20;;;22.30;50.00;;;;;;5109040;28;20071;-39
2021/05/07 12:01:06;;;;;;;2.10;1.02;;;22.30;49.90;;;;;;5106726;28;20036;-44
2021/05/07 12:03:39;;;;;;;3.35;1.15;;;22.20;49.80;;;;;;5108912;28;20039;-42
2021/05/07 12:06:18;;;;;;;1.58;1.20;;;22.20;50.00;;;;;;5109345;28;20043;-43
2021/05/07 12:08:45;;;;;;;1.67;1.20;;;22.30;50.00;;;;;;5108732;28;20055;-43
2021/05/07 12:11:11;;;;;;;1.75;0.95;;;22.40;50.00;;;;;;5088087;28;20616;-43
2021/05/07 12:13:37;;;;;;;0.93;0.90;;;22.40;49.90;;;;;;5091623;28;20126;-44
2021/05/07 12:16:02;;;;;;;2.08;1.00;;;22.40;50.00;;;;;;5100918;28;20169;-43
2021/05/07 12:18:32;;;;;;;1.65;1.25;;;22.50;49.90;;;;;;5108443;28;20051;-41
2021/05/07 12:20:57;;;;;;;0.88;0.85;;;22.40;50.00;;;;;;5105075;28;20062;-41
2021/05/07 12:23:46;;;;;;;1.48;1.10;;;22.40;50.30;;;;;;5107633;28;20031;-40
2021/05/07 12:26:12;;;;;;;2.92;0.90;;;22.40;50.20;;;;;;5099864;28;20394;-40
2021/05/07 12:28:38;;;;;;;1.40;0.95;;;22.30;50.50;;;;;;5110524;28;20046;-42
2021/05/07 12:31:05;;;;;;;1.38;0.95;;;22.30;50.40;;;;;;5104185;28;20051;-41
2021/05/07 12:33:31;;;;;;;0.85;0.85;;;22.30;50.50;;;;;;5103036;28;20040;-41
2021/05/07 12:35:59;;;;;;;2.10;0.98;;;22.30;50.50;;;;;;5104839;28;20146;-41
2021/05/07 12:38:36;;;;;;;1.38;1.10;;;22.30;50.60;;;;;;5064494;28;20042;-40
2021/05/07 12:41:07;;;;;;;1.23;0.90;;;22.40;50.40;;;;;;5101541;28;20067;-41
2021/05/07 12:43:39;;;;;;;2.13;0.98;;;22.30;50.50;;;;;;5107544;28;20075;-41
2021/05/07 12:46:05;;;;;;;1.15;0.80;;;22.30;51.10;;;;;;5108291;28;20513;-41
2021/05/07 12:48:31;;;;;;;1.40;0.95;;;22.30;50.60;;;;;;5108223;28;20050;-40